sensor_id;sensor_type;location;lat;lon;timestamp;P1;durP1;ratioP1;P2;durP2;ratioP2
13279;SDS011;6708;49.814;8.652;2022-12-29T00:01:36;1.93;;;1.27;;
13279;SDS011;6708;49.814;8.652;2022-12-29T00:04:05;1.37;;;1.23;;
13279;SDS011;6708;49.814;8.652;2022-12-29T00:06:36;1.47;;;1.20;;
13279;SDS011;6708;49.814;8.652;2022-12-29T00:09:08;2.57;;;1.30;;
13279;SDS011;6708;49.814;8.652;2022-12-29T00:11:36;1.30;;;1.20;;
13279;SDS011;6708;49.814;8.652;2022-12-29T00:14:08;2.27;;;1.60;;
13279;SDS011;6708;49.814;8.652;2022-12-29T00:16:51;1.83;;;1.40;;
13279;SDS011;6708;49.814;8.652;2022-12-29T00:19:20;1.40;;;1.30;;
13279;SDS011;6708;49.814;8.652;2022-12-29T00:22:03;1.37;;;1.27;;
13279;SDS011;6708;49.814;8.652;2022-12-29T00:24:47;1.77;;;1.67;;
13279;SDS011;6708;49.814;8.652;2022-12-29T00:27:28;1.40;;;1.30;;
13279;SDS011;6708;49.814;8.652;2022-12-29T00:30:10;1.83;;;1.20;;
13279;SDS011;6708;49.814;8.652;2022-12-29T00:32:52;1.63;;;1.47;;
13279;SDS011;6708;49.814;8.652;2022-12-29T00:35:36;1.70;;;1.60;;
13279;SDS011;6708;49.814;8.652;2022-12-29T00:38:07;1.23;;;1.20;;
13279;SDS011;6708;49.814;8.652;2022-12-29T00:41:06;1.33;;;1.23;;
13279;SDS011;6708;49.814;8.652;2022-12-29T00:43:47;1.17;;;1.17;;
13279;SDS011;6708;49.814;8.652;2022-12-29T00:46:28;2.73;;;1.30;;
13279;SDS011;6708;49.814;8.652;2022-12-29T00:48:56;1.93;;;1.50;;
13279;SDS011;6708;49.814;8.652;2022-12-29T00:51:38;1.10;;;1.10;;
13279;SDS011;6708;49.814;8.652;2022-12-29T00:54:08;2.93;;;1.30;;
13279;SDS011;6708;49.814;8.652;2022-12-29T00:56:40;7.53;;;1.97;;
13279;SDS011;6708;49.814;8.652;2022-12-29T00:59:09;1.73;;;1.30;;
13279;SDS011;6708;49.814;8.652;2022-12-29T01:01:39;1.63;;;1.47;;
13279;SDS011;6708;49.814;8.652;2022-12-29T01:04:09;1.20;;;1.00;;
13279;SDS011;6708;49.814;8.652;2022-12-29T01:06:39;4.33;;;0.90;;
13279;SDS011;6708;49.814;8.652;2022-12-29T01:09:08;1.90;;;1.00;;
13279;SDS011;6708;49.814;8.652;2022-12-29T01:12:02;5.50;;;1.30;;
13279;SDS011;6708;49.814;8.652;2022-12-29T01:14:31;1.37;;;1.17;;
13279;SDS011;6708;49.814;8.652;2022-12-29T01:17:00;2.70;;;1.20;;
13279;SDS011;6708;49.814;8.652;2022-12-29T01:19:29;3.27;;;1.17;;
13279;SDS011;6708;49.814;8.652;2022-12-29T01:21:58;2.23;;;0.73;;
13279;SDS011;6708;49.814;8.652;2022-12-29T01:24:29;4.33;;;1.13;;
13279;SDS011;6708;49.814;8.652;2022-12-29T01:27:00;1.30;;;1.17;;
13279;SDS011;6708;49.814;8.652;2022-12-29T01:29:29;0.70;;;0.70;;
13279;SDS011;6708;49.814;8.652;2022-12-29T01:31:58;1.57;;;0.80;;
13279;SDS011;6708;49.814;8.652;2022-12-29T01:34:27;1.63;;;0.60;;
13279;SDS011;6708;49.814;8.652;2022-12-29T01:36:56;0.70;;;0.60;;
13279;SDS011;6708;49.814;8.652;2022-12-29T01:39:25;0.50;;;0.50;;
13279;SDS011;6708;49.814;8.652;2022-12-29T01:41:54;0.50;;;0.50;;
13279;SDS011;6708;49.814;8.652;2022-12-29T01:47:26;0.37;;;0.37;;
13279;SDS011;6708;49.814;8.652;2022-12-29T01:50:00;1.13;;;0.40;;
13279;SDS011;6708;49.814;8.652;2022-12-29T01:52:32;2.03;;;0.87;;
13279;SDS011;6708;49.814;8.652;2022-12-29T01:55:04;0.60;;;0.60;;
13279;SDS011;6708;49.814;8.652;2022-12-29T01:57:37;0.20;;;0.20;;
13279;SDS011;6708;49.814;8.652;2022-12-29T02:00:12;0.37;;;0.37;;
13279;SDS011;6708;49.814;8.652;2022-12-29T02:02:42;0.50;;;0.50;;
13279;SDS011;6708;49.814;8.652;2022-12-29T02:05:16;0.30;;;0.30;;
13279;SDS011;6708;49.814;8.652;2022-12-29T02:07:51;0.60;;;0.60;;
13279;SDS011;6708;49.814;8.652;2022-12-29T02:10:21;1.23;;;0.70;;
13279;SDS011;6708;49.814;8.652;2022-12-29T02:12:53;0.50;;;0.50;;
13279;SDS011;6708;49.814;8.652;2022-12-29T02:15:27;0.60;;;0.50;;
13279;SDS011;6708;49.814;8.652;2022-12-29T02:18:09;0.70;;;0.53;;
13279;SDS011;6708;49.814;8.652;2022-12-29T02:24:04;0.50;;;0.50;;
13279;SDS011;6708;49.814;8.652;2022-12-29T02:27:04;0.73;;;0.70;;
13279;SDS011;6708;49.814;8.652;2022-12-29T02:30:01;0.47;;;0.43;;
13279;SDS011;6708;49.814;8.652;2022-12-29T02:32:38;0.30;;;0.30;;
13279;SDS011;6708;49.814;8.652;2022-12-29T02:35:17;0.40;;;0.40;;
13279;SDS011;6708;49.814;8.652;2022-12-29T02:37:55;0.50;;;0.50;;
13279;SDS011;6708;49.814;8.652;2022-12-29T02:40:29;0.30;;;0.30;;
13279;SDS011;6708;49.814;8.652;2022-12-29T02:43:01;0.50;;;0.50;;
13279;SDS011;6708;49.814;8.652;2022-12-29T02:45:35;0.20;;;0.20;;
13279;SDS011;6708;49.814;8.652;2022-12-29T02:48:12;0.30;;;0.30;;
13279;SDS011;6708;49.814;8.652;2022-12-29T02:50:47;0.40;;;0.40;;
13279;SDS011;6708;49.814;8.652;2022-12-29T02:53:21;0.40;;;0.40;;
13279;SDS011;6708;49.814;8.652;2022-12-29T02:56:05;0.27;;;0.27;;
13279;SDS011;6708;49.814;8.652;2022-12-29T02:58:34;0.30;;;0.30;;
13279;SDS011;6708;49.814;8.652;2022-12-29T03:01:11;0.20;;;0.20;;
13279;SDS011;6708;49.814;8.652;2022-12-29T03:03:57;0.33;;;0.33;;
13279;SDS011;6708;49.814;8.652;2022-12-29T03:06:33;0.50;;;0.50;;
13279;SDS011;6708;49.814;8.652;2022-12-29T03:09:10;0.57;;;0.57;;
13279;SDS011;6708;49.814;8.652;2022-12-29T03:11:44;0.40;;;0.40;;
13279;SDS011;6708;49.814;8.652;2022-12-29T03:14:29;0.60;;;0.60;;
13279;SDS011;6708;49.814;8.652;2022-12-29T03:17:16;0.57;;;0.50;;
13279;SDS011;6708;49.814;8.652;2022-12-29T03:19:52;0.73;;;0.60;;
13279;SDS011;6708;49.814;8.652;2022-12-29T03:22:28;0.50;;;0.50;;
13279;SDS011;6708;49.814;8.652;2022-12-29T03:25:09;0.80;;;0.60;;
13279;SDS011;6708;49.814;8.652;2022-12-29T03:27:44;0.57;;;0.57;;
13279;SDS011;6708;49.814;8.652;2022-12-29T03:30:14;0.97;;;0.80;;
13279;SDS011;6708;49.814;8.652;2022-12-29T03:32:44;1.60;;;0.53;;
13279;SDS011;6708;49.814;8.652;2022-12-29T03:35:19;0.30;;;0.30;;
13279;SDS011;6708;49.814;8.652;2022-12-29T03:37:52;0.47;;;0.43;;
13279;SDS011;6708;49.814;8.652;2022-12-29T03:40:27;0.50;;;0.50;;
13279;SDS011;6708;49.814;8.652;2022-12-29T03:42:58;0.50;;;0.50;;
13279;SDS011;6708;49.814;8.652;2022-12-29T03:45:29;0.70;;;0.70;;
13279;SDS011;6708;49.814;8.652;2022-12-29T03:47:58;0.97;;;0.60;;
13279;SDS011;6708;49.814;8.652;2022-12-29T03:50:30;0.50;;;0.50;;
13279;SDS011;6708;49.814;8.652;2022-12-29T03:52:59;0.77;;;0.77;;
13279;SDS011;6708;49.814;8.652;2022-12-29T03:55:28;1.10;;;0.70;;
13279;SDS011;6708;49.814;8.652;2022-12-29T03:57:57;0.53;;;0.53;;
13279;SDS011;6708;49.814;8.652;2022-12-29T04:00:49;0.63;;;0.63;;
13279;SDS011;6708;49.814;8.652;2022-12-29T04:03:18;0.97;;;0.80;;
13279;SDS011;6708;49.814;8.652;2022-12-29T04:05:49;0.77;;;0.60;;
13279;SDS011;6708;49.814;8.652;2022-12-29T04:08:18;0.73;;;0.70;;
13279;SDS011;6708;49.814;8.652;2022-12-29T04:10:49;0.77;;;0.73;;
13279;SDS011;6708;49.814;8.652;2022-12-29T04:13:21;0.93;;;0.77;;
13279;SDS011;6708;49.814;8.652;2022-12-29T04:15:49;1.13;;;0.70;;
13279;SDS011;6708;49.814;8.652;2022-12-29T04:18:18;0.80;;;0.80;;
13279;SDS011;6708;49.814;8.652;2022-12-29T04:20:50;2.10;;;0.50;;
13279;SDS011;6708;49.814;8.652;2022-12-29T04:23:30;0.97;;;0.80;;
13279;SDS011;6708;49.814;8.652;2022-12-29T04:26:03;0.60;;;0.60;;
13279;SDS011;6708;49.814;8.652;2022-12-29T04:28:44;0.50;;;0.50;;
13279;SDS011;6708;49.814;8.652;2022-12-29T04:31:35;0.77;;;0.77;;
13279;SDS011;6708;49.814;8.652;2022-12-29T04:34:04;0.50;;;0.50;;
13279;SDS011;6708;49.814;8.652;2022-12-29T04:36:36;0.87;;;0.80;;
13279;SDS011;6708;49.814;8.652;2022-12-29T04:39:05;0.67;;;0.60;;
13279;SDS011;6708;49.814;8.652;2022-12-29T04:41:36;1.27;;;0.87;;
13279;SDS011;6708;49.814;8.652;2022-12-29T04:44:12;2.50;;;0.60;;
13279;SDS011;6708;49.814;8.652;2022-12-29T04:47:12;1.57;;;1.00;;
13279;SDS011;6708;49.814;8.652;2022-12-29T04:49:48;0.53;;;0.53;;
13279;SDS011;6708;49.814;8.652;2022-12-29T04:52:43;1.80;;;0.80;;
13279;SDS011;6708;49.814;8.652;2022-12-29T04:55:13;0.97;;;0.60;;
13279;SDS011;6708;49.814;8.652;2022-12-29T04:57:41;1.23;;;0.73;;
13279;SDS011;6708;49.814;8.652;2022-12-29T05:00:14;0.60;;;0.60;;
13279;SDS011;6708;49.814;8.652;2022-12-29T05:02:43;0.50;;;0.50;;
13279;SDS011;6708;49.814;8.652;2022-12-29T05:05:14;0.60;;;0.60;;
13279;SDS011;6708;49.814;8.652;2022-12-29T05:07:49;0.67;;;0.67;;
13279;SDS011;6708;49.814;8.652;2022-12-29T05:10:18;1.27;;;0.80;;
13279;SDS011;6708;49.814;8.652;2022-12-29T05:12:51;0.57;;;0.53;;
13279;SDS011;6708;49.814;8.652;2022-12-29T05:15:20;1.20;;;0.83;;
13279;SDS011;6708;49.814;8.652;2022-12-29T05:17:50;2.87;;;1.17;;
13279;SDS011;6708;49.814;8.652;2022-12-29T05:20:19;0.70;;;0.70;;
13279;SDS011;6708;49.814;8.652;2022-12-29T05:22:51;0.53;;;0.53;;
13279;SDS011;6708;49.814;8.652;2022-12-29T05:25:23;0.70;;;0.67;;
13279;SDS011;6708;49.814;8.652;2022-12-29T05:28:17;0.60;;;0.60;;
13279;SDS011;6708;49.814;8.652;2022-12-29T05:30:55;1.60;;;0.90;;
13279;SDS011;6708;49.814;8.652;2022-12-29T05:33:23;0.70;;;0.70;;
13279;SDS011;6708;49.814;8.652;2022-12-29T05:35:52;1.63;;;0.80;;
13279;SDS011;6708;49.814;8.652;2022-12-29T05:38:26;1.27;;;1.07;;
13279;SDS011;6708;49.814;8.652;2022-12-29T05:40:55;1.70;;;0.70;;
13279;SDS011;6708;49.814;8.652;2022-12-29T05:43:45;0.93;;;0.67;;
13279;SDS011;6708;49.814;8.652;2022-12-29T05:46:27;0.70;;;0.70;;
13279;SDS011;6708;49.814;8.652;2022-12-29T05:49:10;0.60;;;0.60;;
13279;SDS011;6708;49.814;8.652;2022-12-29T05:52:05;1.57;;;0.70;;
13279;SDS011;6708;49.814;8.652;2022-12-29T05:54:37;2.70;;;0.70;;
13279;SDS011;6708;49.814;8.652;2022-12-29T05:57:11;0.90;;;0.80;;
13279;SDS011;6708;49.814;8.652;2022-12-29T05:59:42;1.00;;;0.90;;
13279;SDS011;6708;49.814;8.652;2022-12-29T06:02:11;1.60;;;0.60;;
13279;SDS011;6708;49.814;8.652;2022-12-29T06:04:41;1.03;;;0.77;;
13279;SDS011;6708;49.814;8.652;2022-12-29T06:07:10;0.70;;;0.70;;
13279;SDS011;6708;49.814;8.652;2022-12-29T06:09:44;0.60;;;0.60;;
13279;SDS011;6708;49.814;8.652;2022-12-29T06:12:13;1.20;;;0.70;;
13279;SDS011;6708;49.814;8.652;2022-12-29T06:14:45;0.93;;;0.73;;
13279;SDS011;6708;49.814;8.652;2022-12-29T06:17:15;0.60;;;0.60;;
13279;SDS011;6708;49.814;8.652;2022-12-29T06:19:44;0.80;;;0.80;;
13279;SDS011;6708;49.814;8.652;2022-12-29T06:22:13;1.23;;;0.90;;
13279;SDS011;6708;49.814;8.652;2022-12-29T06:24:44;0.60;;;0.60;;
13279;SDS011;6708;49.814;8.652;2022-12-29T06:27:13;1.13;;;0.77;;
13279;SDS011;6708;49.814;8.652;2022-12-29T06:29:42;0.50;;;0.50;;
13279;SDS011;6708;49.814;8.652;2022-12-29T06:32:11;0.80;;;0.80;;
13279;SDS011;6708;49.814;8.652;2022-12-29T06:34:45;0.90;;;0.90;;
13279;SDS011;6708;49.814;8.652;2022-12-29T06:37:16;0.70;;;0.70;;
13279;SDS011;6708;49.814;8.652;2022-12-29T06:39:47;1.60;;;0.73;;
13279;SDS011;6708;49.814;8.652;2022-12-29T06:42:21;0.77;;;0.67;;
13279;SDS011;6708;49.814;8.652;2022-12-29T06:45:31;2.93;;;0.83;;
13279;SDS011;6708;49.814;8.652;2022-12-29T06:48:00;2.10;;;0.90;;
13279;SDS011;6708;49.814;8.652;2022-12-29T06:50:29;3.23;;;0.90;;
13279;SDS011;6708;49.814;8.652;2022-12-29T06:52:58;0.70;;;0.70;;
13279;SDS011;6708;49.814;8.652;2022-12-29T06:55:30;0.80;;;0.80;;
13279;SDS011;6708;49.814;8.652;2022-12-29T06:57:59;1.10;;;1.00;;
13279;SDS011;6708;49.814;8.652;2022-12-29T07:00:30;0.90;;;0.90;;
13279;SDS011;6708;49.814;8.652;2022-12-29T07:02:59;0.80;;;0.80;;
13279;SDS011;6708;49.814;8.652;2022-12-29T07:05:28;1.13;;;1.07;;
13279;SDS011;6708;49.814;8.652;2022-12-29T07:07:58;2.23;;;0.93;;
13279;SDS011;6708;49.814;8.652;2022-12-29T07:10:27;4.07;;;1.07;;
13279;SDS011;6708;49.814;8.652;2022-12-29T07:12:59;1.00;;;1.00;;
13279;SDS011;6708;49.814;8.652;2022-12-29T07:15:28;1.33;;;1.20;;
13279;SDS011;6708;49.814;8.652;2022-12-29T07:17:57;1.77;;;1.10;;
13279;SDS011;6708;49.814;8.652;2022-12-29T07:20:25;0.70;;;0.70;;
13279;SDS011;6708;49.814;8.652;2022-12-29T07:22:54;2.97;;;1.40;;
13279;SDS011;6708;49.814;8.652;2022-12-29T07:25:23;2.33;;;1.20;;
13279;SDS011;6708;49.814;8.652;2022-12-29T07:27:55;1.10;;;1.10;;
13279;SDS011;6708;49.814;8.652;2022-12-29T07:30:24;1.27;;;0.90;;
13279;SDS011;6708;49.814;8.652;2022-12-29T07:32:53;1.50;;;0.90;;
13279;SDS011;6708;49.814;8.652;2022-12-29T07:35:21;0.73;;;0.70;;
13279;SDS011;6708;49.814;8.652;2022-12-29T07:37:50;2.83;;;0.97;;
13279;SDS011;6708;49.814;8.652;2022-12-29T07:40:19;1.83;;;1.07;;
13279;SDS011;6708;49.814;8.652;2022-12-29T07:42:48;1.07;;;1.07;;
13279;SDS011;6708;49.814;8.652;2022-12-29T07:45:28;1.70;;;0.90;;
13279;SDS011;6708;49.814;8.652;2022-12-29T07:48:07;1.83;;;0.90;;
13279;SDS011;6708;49.814;8.652;2022-12-29T07:50:36;1.37;;;1.07;;
13279;SDS011;6708;49.814;8.652;2022-12-29T07:53:05;1.23;;;1.10;;
13279;SDS011;6708;49.814;8.652;2022-12-29T07:55:33;2.00;;;1.10;;
13279;SDS011;6708;49.814;8.652;2022-12-29T07:58:02;3.43;;;1.30;;
13279;SDS011;6708;49.814;8.652;2022-12-29T08:00:33;1.03;;;0.93;;
13279;SDS011;6708;49.814;8.652;2022-12-29T08:03:03;2.53;;;1.07;;
13279;SDS011;6708;49.814;8.652;2022-12-29T08:05:31;1.00;;;1.00;;
13279;SDS011;6708;49.814;8.652;2022-12-29T08:08:02;6.33;;;1.27;;
13279;SDS011;6708;49.814;8.652;2022-12-29T08:10:31;3.03;;;1.20;;
13279;SDS011;6708;49.814;8.652;2022-12-29T08:13:00;0.87;;;0.83;;
13279;SDS011;6708;49.814;8.652;2022-12-29T08:15:28;4.00;;;1.20;;
13279;SDS011;6708;49.814;8.652;2022-12-29T08:18:00;1.90;;;1.10;;
13279;SDS011;6708;49.814;8.652;2022-12-29T08:20:28;1.20;;;1.10;;
13279;SDS011;6708;49.814;8.652;2022-12-29T08:22:57;1.90;;;1.20;;
13279;SDS011;6708;49.814;8.652;2022-12-29T08:25:26;1.70;;;1.27;;
13279;SDS011;6708;49.814;8.652;2022-12-29T08:27:55;2.73;;;1.03;;
13279;SDS011;6708;49.814;8.652;2022-12-29T08:30:23;1.60;;;1.27;;
13279;SDS011;6708;49.814;8.652;2022-12-29T08:32:52;2.13;;;1.10;;
13279;SDS011;6708;49.814;8.652;2022-12-29T08:35:23;2.00;;;1.10;;
13279;SDS011;6708;49.814;8.652;2022-12-29T08:37:52;2.93;;;1.40;;
13279;SDS011;6708;49.814;8.652;2022-12-29T08:40:21;1.67;;;1.17;;
13279;SDS011;6708;49.814;8.652;2022-12-29T08:42:50;1.40;;;1.27;;
13279;SDS011;6708;49.814;8.652;2022-12-29T08:45:18;1.40;;;1.30;;
13279;SDS011;6708;49.814;8.652;2022-12-29T08:47:47;3.20;;;1.30;;
13279;SDS011;6708;49.814;8.652;2022-12-29T08:50:16;1.00;;;1.00;;
13279;SDS011;6708;49.814;8.652;2022-12-29T08:52:48;0.93;;;0.93;;
13279;SDS011;6708;49.814;8.652;2022-12-29T08:55:16;2.73;;;1.27;;
13279;SDS011;6708;49.814;8.652;2022-12-29T08:57:46;2.30;;;1.20;;
13279;SDS011;6708;49.814;8.652;2022-12-29T09:00:18;1.77;;;1.13;;
13279;SDS011;6708;49.814;8.652;2022-12-29T09:02:48;1.17;;;1.03;;
13279;SDS011;6708;49.814;8.652;2022-12-29T09:05:19;1.30;;;1.20;;
13279;SDS011;6708;49.814;8.652;2022-12-29T09:07:50;1.17;;;1.10;;
13279;SDS011;6708;49.814;8.652;2022-12-29T09:10:19;2.37;;;1.13;;
13279;SDS011;6708;49.814;8.652;2022-12-29T09:12:47;1.00;;;1.00;;
13279;SDS011;6708;49.814;8.652;2022-12-29T09:15:16;0.83;;;0.83;;
13279;SDS011;6708;49.814;8.652;2022-12-29T09:17:45;1.87;;;1.20;;
13279;SDS011;6708;49.814;8.652;2022-12-29T09:20:15;1.30;;;1.20;;
13279;SDS011;6708;49.814;8.652;2022-12-29T09:22:47;1.20;;;1.20;;
13279;SDS011;6708;49.814;8.652;2022-12-29T09:25:19;2.03;;;1.13;;
13279;SDS011;6708;49.814;8.652;2022-12-29T09:27:51;1.50;;;1.33;;
13279;SDS011;6708;49.814;8.652;2022-12-29T09:30:21;1.00;;;1.00;;
13279;SDS011;6708;49.814;8.652;2022-12-29T09:32:50;5.20;;;1.40;;
13279;SDS011;6708;49.814;8.652;2022-12-29T09:35:19;1.40;;;1.30;;
13279;SDS011;6708;49.814;8.652;2022-12-29T09:37:51;2.77;;;1.10;;
13279;SDS011;6708;49.814;8.652;2022-12-29T09:40:27;1.33;;;1.00;;
13279;SDS011;6708;49.814;8.652;2022-12-29T09:43:17;1.20;;;1.20;;
13279;SDS011;6708;49.814;8.652;2022-12-29T09:46:05;1.37;;;1.20;;
13279;SDS011;6708;49.814;8.652;2022-12-29T09:48:39;2.63;;;1.00;;
13279;SDS011;6708;49.814;8.652;2022-12-29T09:51:11;1.40;;;1.27;;
13279;SDS011;6708;49.814;8.652;2022-12-29T09:53:45;5.80;;;1.37;;
13279;SDS011;6708;49.814;8.652;2022-12-29T09:56:17;1.40;;;1.30;;
13279;SDS011;6708;49.814;8.652;2022-12-29T09:58:49;2.00;;;1.17;;
13279;SDS011;6708;49.814;8.652;2022-12-29T10:01:23;2.20;;;1.07;;
13279;SDS011;6708;49.814;8.652;2022-12-29T10:03:57;2.17;;;1.47;;
13279;SDS011;6708;49.814;8.652;2022-12-29T10:06:32;1.27;;;1.17;;
13279;SDS011;6708;49.814;8.652;2022-12-29T10:09:13;1.90;;;1.30;;
13279;SDS011;6708;49.814;8.652;2022-12-29T10:11:51;1.80;;;1.40;;
13279;SDS011;6708;49.814;8.652;2022-12-29T10:14:39;2.80;;;1.17;;
13279;SDS011;6708;49.814;8.652;2022-12-29T10:17:22;1.13;;;1.10;;
13279;SDS011;6708;49.814;8.652;2022-12-29T10:20:17;1.00;;;0.90;;
13279;SDS011;6708;49.814;8.652;2022-12-29T10:22:55;2.67;;;1.20;;
13279;SDS011;6708;49.814;8.652;2022-12-29T10:25:35;1.50;;;1.10;;
13279;SDS011;6708;49.814;8.652;2022-12-29T10:28:10;1.40;;;1.30;;
13279;SDS011;6708;49.814;8.652;2022-12-29T10:30:50;1.17;;;1.10;;
13279;SDS011;6708;49.814;8.652;2022-12-29T10:33:21;1.53;;;1.20;;
13279;SDS011;6708;49.814;8.652;2022-12-29T10:35:52;2.33;;;1.20;;
13279;SDS011;6708;49.814;8.652;2022-12-29T10:38:25;1.03;;;1.00;;
13279;SDS011;6708;49.814;8.652;2022-12-29T10:41:00;1.47;;;1.10;;
13279;SDS011;6708;49.814;8.652;2022-12-29T10:43:37;1.40;;;1.30;;
13279;SDS011;6708;49.814;8.652;2022-12-29T10:46:13;2.47;;;1.60;;
13279;SDS011;6708;49.814;8.652;2022-12-29T10:48:44;1.23;;;1.23;;
13279;SDS011;6708;49.814;8.652;2022-12-29T10:51:15;1.33;;;1.23;;
13279;SDS011;6708;49.814;8.652;2022-12-29T10:53:50;1.30;;;1.20;;
13279;SDS011;6708;49.814;8.652;2022-12-29T10:56:25;2.20;;;1.10;;
13279;SDS011;6708;49.814;8.652;2022-12-29T10:58:59;2.67;;;1.17;;
13279;SDS011;6708;49.814;8.652;2022-12-29T11:01:34;2.23;;;0.90;;
13279;SDS011;6708;49.814;8.652;2022-12-29T11:04:22;0.60;;;0.60;;
13279;SDS011;6708;49.814;8.652;2022-12-29T11:06:57;2.67;;;0.50;;
13279;SDS011;6708;49.814;8.652;2022-12-29T11:09:27;0.40;;;0.40;;
13279;SDS011;6708;49.814;8.652;2022-12-29T11:12:04;0.40;;;0.40;;
13279;SDS011;6708;49.814;8.652;2022-12-29T11:15:01;0.50;;;0.50;;
13279;SDS011;6708;49.814;8.652;2022-12-29T11:17:45;0.53;;;0.53;;
13279;SDS011;6708;49.814;8.652;2022-12-29T11:23:20;1.90;;;0.70;;
13279;SDS011;6708;49.814;8.652;2022-12-29T11:28:46;0.60;;;0.43;;
13279;SDS011;6708;49.814;8.652;2022-12-29T11:31:16;0.40;;;0.40;;
13279;SDS011;6708;49.814;8.652;2022-12-29T11:33:46;0.33;;;0.33;;
13279;SDS011;6708;49.814;8.652;2022-12-29T11:36:16;0.30;;;0.30;;
13279;SDS011;6708;49.814;8.652;2022-12-29T11:38:47;1.03;;;0.53;;
13279;SDS011;6708;49.814;8.652;2022-12-29T11:41:21;1.23;;;0.60;;
13279;SDS011;6708;49.814;8.652;2022-12-29T11:43:55;1.67;;;0.47;;
13279;SDS011;6708;49.814;8.652;2022-12-29T11:46:26;1.60;;;0.73;;
13279;SDS011;6708;49.814;8.652;2022-12-29T11:48:57;0.53;;;0.53;;
13279;SDS011;6708;49.814;8.652;2022-12-29T11:51:27;2.77;;;0.77;;
13279;SDS011;6708;49.814;8.652;2022-12-29T11:53:58;0.70;;;0.70;;
13279;SDS011;6708;49.814;8.652;2022-12-29T11:56:32;1.07;;;0.87;;
13279;SDS011;6708;49.814;8.652;2022-12-29T12:02:08;0.70;;;0.70;;
13279;SDS011;6708;49.814;8.652;2022-12-29T12:04:53;1.00;;;1.00;;
13279;SDS011;6708;49.814;8.652;2022-12-29T12:07:29;0.97;;;0.97;;
13279;SDS011;6708;49.814;8.652;2022-12-29T12:10:05;0.87;;;0.87;;
13279;SDS011;6708;49.814;8.652;2022-12-29T12:12:41;1.70;;;1.13;;
13279;SDS011;6708;49.814;8.652;2022-12-29T12:15:17;2.00;;;1.00;;
13279;SDS011;6708;49.814;8.652;2022-12-29T12:17:54;0.77;;;0.70;;
13279;SDS011;6708;49.814;8.652;2022-12-29T12:20:27;0.57;;;0.53;;
13279;SDS011;6708;49.814;8.652;2022-12-29T12:23:06;0.70;;;0.60;;
13279;SDS011;6708;49.814;8.652;2022-12-29T12:25:46;1.23;;;0.60;;
13279;SDS011;6708;49.814;8.652;2022-12-29T12:28:24;0.60;;;0.60;;
13279;SDS011;6708;49.814;8.652;2022-12-29T12:31:00;0.50;;;0.50;;
13279;SDS011;6708;49.814;8.652;2022-12-29T12:33:31;0.63;;;0.63;;
13279;SDS011;6708;49.814;8.652;2022-12-29T12:36:09;0.73;;;0.40;;
13279;SDS011;6708;49.814;8.652;2022-12-29T12:38:48;0.63;;;0.63;;
13279;SDS011;6708;49.814;8.652;2022-12-29T12:41:25;0.70;;;0.70;;
13279;SDS011;6708;49.814;8.652;2022-12-29T12:44:03;8.33;;;0.90;;
13279;SDS011;6708;49.814;8.652;2022-12-29T12:46:46;0.50;;;0.50;;
13279;SDS011;6708;49.814;8.652;2022-12-29T12:49:35;0.30;;;0.30;;
13279;SDS011;6708;49.814;8.652;2022-12-29T12:52:14;0.60;;;0.60;;
13279;SDS011;6708;49.814;8.652;2022-12-29T12:55:01;0.50;;;0.50;;
13279;SDS011;6708;49.814;8.652;2022-12-29T12:57:49;0.43;;;0.43;;
13279;SDS011;6708;49.814;8.652;2022-12-29T13:00:38;0.60;;;0.60;;
13279;SDS011;6708;49.814;8.652;2022-12-29T13:03:20;2.13;;;0.77;;
13279;SDS011;6708;49.814;8.652;2022-12-29T13:06:00;0.47;;;0.47;;
13279;SDS011;6708;49.814;8.652;2022-12-29T13:08:45;0.67;;;0.60;;
13279;SDS011;6708;49.814;8.652;2022-12-29T13:11:22;1.00;;;0.90;;
13279;SDS011;6708;49.814;8.652;2022-12-29T13:13:59;0.80;;;0.80;;
13279;SDS011;6708;49.814;8.652;2022-12-29T13:16:39;1.87;;;0.90;;
13279;SDS011;6708;49.814;8.652;2022-12-29T13:19:16;1.50;;;1.00;;
13279;SDS011;6708;49.814;8.652;2022-12-29T13:21:54;1.97;;;1.27;;
13279;SDS011;6708;49.814;8.652;2022-12-29T13:24:28;1.30;;;0.77;;
13279;SDS011;6708;49.814;8.652;2022-12-29T13:27:08;1.70;;;0.97;;
13279;SDS011;6708;49.814;8.652;2022-12-29T13:29:44;0.83;;;0.70;;
13279;SDS011;6708;49.814;8.652;2022-12-29T13:32:23;2.40;;;0.60;;
13279;SDS011;6708;49.814;8.652;2022-12-29T13:35:23;3.13;;;0.70;;
13279;SDS011;6708;49.814;8.652;2022-12-29T13:38:04;0.87;;;0.80;;
13279;SDS011;6708;49.814;8.652;2022-12-29T13:40:43;0.60;;;0.60;;
13279;SDS011;6708;49.814;8.652;2022-12-29T13:43:14;0.60;;;0.60;;
13279;SDS011;6708;49.814;8.652;2022-12-29T13:45:44;0.73;;;0.73;;
13279;SDS011;6708;49.814;8.652;2022-12-29T13:48:14;0.53;;;0.53;;
13279;SDS011;6708;49.814;8.652;2022-12-29T13:50:50;1.60;;;0.93;;
13279;SDS011;6708;49.814;8.652;2022-12-29T13:53:26;1.43;;;0.73;;
13279;SDS011;6708;49.814;8.652;2022-12-29T13:56:01;0.47;;;0.47;;
13279;SDS011;6708;49.814;8.652;2022-12-29T13:58:35;1.43;;;0.67;;
13279;SDS011;6708;49.814;8.652;2022-12-29T14:01:08;1.80;;;0.70;;
13279;SDS011;6708;49.814;8.652;2022-12-29T14:03:43;0.83;;;0.73;;
13279;SDS011;6708;49.814;8.652;2022-12-29T14:09:06;1.33;;;0.80;;
13279;SDS011;6708;49.814;8.652;2022-12-29T14:11:57;0.67;;;0.60;;
13279;SDS011;6708;49.814;8.652;2022-12-29T14:14:28;0.73;;;0.70;;
13279;SDS011;6708;49.814;8.652;2022-12-29T14:17:06;0.70;;;0.70;;
13279;SDS011;6708;49.814;8.652;2022-12-29T14:19:38;0.97;;;0.67;;
13279;SDS011;6708;49.814;8.652;2022-12-29T14:22:11;0.83;;;0.77;;
13279;SDS011;6708;49.814;8.652;2022-12-29T14:24:42;0.60;;;0.60;;
13279;SDS011;6708;49.814;8.652;2022-12-29T14:33:13;0.63;;;0.60;;
13279;SDS011;6708;49.814;8.652;2022-12-29T14:35:43;0.73;;;0.70;;
13279;SDS011;6708;49.814;8.652;2022-12-29T14:38:22;0.97;;;0.70;;
13279;SDS011;6708;49.814;8.652;2022-12-29T14:40:52;1.20;;;0.77;;
13279;SDS011;6708;49.814;8.652;2022-12-29T14:43:22;1.80;;;0.60;;
13279;SDS011;6708;49.814;8.652;2022-12-29T14:46:02;1.07;;;0.63;;
13279;SDS011;6708;49.814;8.652;2022-12-29T14:48:38;0.40;;;0.40;;
13279;SDS011;6708;49.814;8.652;2022-12-29T14:51:19;2.43;;;0.60;;
13279;SDS011;6708;49.814;8.652;2022-12-29T14:53:57;0.70;;;0.47;;
13279;SDS011;6708;49.814;8.652;2022-12-29T14:56:27;0.40;;;0.40;;
13279;SDS011;6708;49.814;8.652;2022-12-29T14:58:57;0.87;;;0.43;;
13279;SDS011;6708;49.814;8.652;2022-12-29T15:01:36;0.77;;;0.30;;
13279;SDS011;6708;49.814;8.652;2022-12-29T15:04:15;0.60;;;0.60;;
13279;SDS011;6708;49.814;8.652;2022-12-29T15:06:46;0.47;;;0.47;;
13279;SDS011;6708;49.814;8.652;2022-12-29T15:09:22;2.10;;;0.40;;
13279;SDS011;6708;49.814;8.652;2022-12-29T15:11:53;0.93;;;0.50;;
13279;SDS011;6708;49.814;8.652;2022-12-29T15:14:28;0.20;;;0.20;;
13279;SDS011;6708;49.814;8.652;2022-12-29T15:17:26;1.07;;;0.40;;
13279;SDS011;6708;49.814;8.652;2022-12-29T15:19:57;0.90;;;0.60;;
13279;SDS011;6708;49.814;8.652;2022-12-29T15:22:26;1.03;;;0.60;;
13279;SDS011;6708;49.814;8.652;2022-12-29T15:25:00;0.87;;;0.40;;
13279;SDS011;6708;49.814;8.652;2022-12-29T15:27:29;1.13;;;0.27;;
13279;SDS011;6708;49.814;8.652;2022-12-29T15:29:58;1.10;;;0.50;;
13279;SDS011;6708;49.814;8.652;2022-12-29T15:32:38;0.30;;;0.20;;
13279;SDS011;6708;49.814;8.652;2022-12-29T15:35:21;2.87;;;0.50;;
13279;SDS011;6708;49.814;8.652;2022-12-29T15:37:53;0.60;;;0.60;;
13279;SDS011;6708;49.814;8.652;2022-12-29T15:40:26;0.80;;;0.33;;
13279;SDS011;6708;49.814;8.652;2022-12-29T15:43:10;0.60;;;0.60;;
13279;SDS011;6708;49.814;8.652;2022-12-29T15:45:45;0.30;;;0.30;;
13279;SDS011;6708;49.814;8.652;2022-12-29T15:48:16;1.07;;;0.40;;
13279;SDS011;6708;49.814;8.652;2022-12-29T15:50:48;1.57;;;0.40;;
13279;SDS011;6708;49.814;8.652;2022-12-29T15:53:18;1.17;;;0.50;;
13279;SDS011;6708;49.814;8.652;2022-12-29T15:55:56;1.83;;;0.63;;
13279;SDS011;6708;49.814;8.652;2022-12-29T15:58:27;1.03;;;0.60;;
13279;SDS011;6708;49.814;8.652;2022-12-29T16:00:57;0.63;;;0.60;;
13279;SDS011;6708;49.814;8.652;2022-12-29T16:03:27;0.87;;;0.63;;
13279;SDS011;6708;49.814;8.652;2022-12-29T16:06:06;0.67;;;0.63;;
13279;SDS011;6708;49.814;8.652;2022-12-29T16:08:37;0.90;;;0.90;;